»·PEaware :: UPS68 KLAS-KSEA

UPS68 :: KLAS-KSEA

FLIGHT INFORMATION

Flight Status: Arrived
Operator:
United Parcel Service
More flights by this operator :: More flights under this callsign
Pilot: Sam F. (29954)
Aircraft: BOEING 767-300
(B763)
More flights by this aircraft type
Origin: KLAS McCarran Intl
United States
Destination: KSEA Seattle-Tacoma Intl
United States
More flights between these airports :: More routes between these airports
Route: SHEAD1 OAL LOMIA LKV HAWKZ7
File this flight plan on PilotEdge
Remarks: RMK / SIMBRIEF
Altitude:
(Current/Filed)
36,000ft
Speed:
(Current/Filed)
505kts
Departed: 25-Jul-20 03:40 PM
Arrived: 25-Jul-20 05:46 PM
Distance/Time
Traveled:
753nm/2:06
Distance/Time
To Go:
Arrived

Flight Plot

Page will automatically refresh every two minutes.

Flight plan parsing failed; only flown route is shown


Map Options




Map Legend


Flown Route
Filed Route
Departure Airport
Arrival Airport
Navaid (VOR, NDB)
Fix

Horizontal Profiles

Position Reports

Time Latitude Longitude Heading Altitude Ground
Speed
25-Jul-20 14:50 36.098700 -115.161335 115 2190ft 0kts
25-Jul-20 14:51 36.098700 -115.161335 115 2190ft 0kts
25-Jul-20 14:52 36.098700 -115.161335 115 2190ft 0kts
25-Jul-20 14:53 36.098700 -115.161335 115 2190ft 0kts
25-Jul-20 14:54 36.098700 -115.161335 115 2190ft 0kts
25-Jul-20 14:55 36.098700 -115.161335 115 2190ft 0kts
25-Jul-20 14:56 36.098700 -115.161335 115 2190ft 0kts
25-Jul-20 14:57 36.098700 -115.161335 115 2190ft 0kts
25-Jul-20 14:58 36.079681 -115.125658 90 2190ft 0kts
25-Jul-20 14:59 36.079681 -115.125658 90 2190ft 0kts
25-Jul-20 15:00 36.079681 -115.125658 90 2190ft 0kts
25-Jul-20 15:01 36.079681 -115.125658 90 2190ft 0kts
25-Jul-20 15:02 36.079681 -115.125658 90 2190ft 0kts
25-Jul-20 15:03 36.079681 -115.125658 90 2190ft 0kts
25-Jul-20 15:04 36.079681 -115.125658 90 2190ft 0kts
25-Jul-20 15:05 36.079681 -115.125658 90 2190ft 0kts
25-Jul-20 15:06 36.079681 -115.125658 90 2190ft 0kts
25-Jul-20 15:07 36.079681 -115.125658 90 2190ft 0kts
25-Jul-20 15:08 36.079681 -115.125658 90 2190ft 0kts
25-Jul-20 15:09 36.079681 -115.125658 90 2190ft 0kts
25-Jul-20 15:10 36.079681 -115.125658 90 2190ft 0kts
25-Jul-20 15:11 36.079681 -115.125658 90 2190ft 0kts
25-Jul-20 15:12 36.079681 -115.125658 90 2190ft 0kts
25-Jul-20 15:13 36.079681 -115.125658 90 2190ft 0kts
25-Jul-20 15:14 36.079681 -115.125658 90 2190ft 0kts
25-Jul-20 15:15 36.079681 -115.125658 90 2190ft 0kts
25-Jul-20 15:16 36.079681 -115.125658 90 2190ft 0kts
25-Jul-20 15:17 36.079681 -115.125658 90 2190ft 0kts
25-Jul-20 15:18 36.079681 -115.125658 90 2190ft 0kts
25-Jul-20 15:19 36.079681 -115.125658 90 2190ft 0kts
25-Jul-20 15:20 36.079681 -115.125658 90 2190ft 0kts
25-Jul-20 15:21 36.079681 -115.125658 90 2190ft 0kts
25-Jul-20 15:22 36.079681 -115.125658 90 2190ft 0kts
25-Jul-20 15:23 36.079681 -115.125658 90 2190ft 0kts
25-Jul-20 15:24 36.079704 -115.126113 117 2190ft 2kts
25-Jul-20 15:25 36.080037 -115.126363 180 2190ft 0kts
25-Jul-20 15:26 36.080037 -115.126363 180 2190ft 0kts
25-Jul-20 15:27 36.080015 -115.126363 180 2190ft 0kts
25-Jul-20 15:28 36.079167 -115.126347 179 2190ft 0kts
25-Jul-20 15:29 36.079167 -115.126347 179 2190ft 0kts
25-Jul-20 15:30 36.078915 -115.126343 179 2190ft 5kts
25-Jul-20 15:31 36.078300 -115.129992 270 2190ft 20kts
25-Jul-20 15:32 36.078293 -115.138307 270 2190ft 27kts
25-Jul-20 15:33 36.078534 -115.147117 273 2190ft 28kts
25-Jul-20 15:34 36.078412 -115.153302 212 2190ft 7kts
25-Jul-20 15:35 36.078029 -115.159023 270 2190ft 19kts
25-Jul-20 15:36 36.076439 -115.161124 126 2190ft 6kts
25-Jul-20 15:37 36.076386 -115.160777 89 2190ft 0kts
25-Jul-20 15:38 36.076386 -115.160777 89 2190ft 0kts
25-Jul-20 15:39 36.076396 -115.154858 90 2190ft 94kts
25-Jul-20 15:40 36.075934 -115.099956 91 3794ft 183kts
25-Jul-20 15:41 36.076166 -115.027466 93 5354ft 242kts
25-Jul-20 15:42 36.054912 -114.946113 153 7828ft 269kts
25-Jul-20 15:43 35.983778 -114.910551 167 10663ft 288kts
25-Jul-20 15:44 35.909331 -114.955603 236 12357ft 349kts
25-Jul-20 15:45 35.843572 -115.050912 233 14575ft 391kts
25-Jul-20 15:46 35.819193 -115.186009 274 17037ft 436kts
25-Jul-20 15:47 35.842254 -115.335592 274 20073ft 452kts
25-Jul-20 15:48 35.856614 -115.491030 272 23035ft 465kts
25-Jul-20 15:49 35.869986 -115.651526 271 25877ft 477kts
25-Jul-20 15:50 35.880214 -115.777205 271 28056ft 485kts
25-Jul-20 15:51 35.900357 -115.937615 285 31932ft 473kts
25-Jul-20 15:52 35.979830 -116.066135 310 34808ft 477kts
25-Jul-20 15:53 36.075385 -116.177609 311 36010ft 473kts
25-Jul-20 15:54 36.171005 -116.288341 311 36004ft 471kts
25-Jul-20 15:55 36.266569 -116.399241 311 36004ft 471kts
25-Jul-20 15:56 36.361896 -116.510241 311 36004ft 471kts
25-Jul-20 15:57 36.457256 -116.621671 311 36004ft 471kts
25-Jul-20 15:58 36.552670 -116.733354 312 36003ft 472kts
25-Jul-20 15:59 36.664102 -116.823718 322 36011ft 481kts
25-Jul-20 16:00 36.778110 -116.910612 322 36009ft 481kts
25-Jul-20 16:01 36.891613 -116.997288 322 36077ft 477kts
25-Jul-20 16:02 37.004507 -117.083829 324 36168ft 476kts
25-Jul-20 16:03 37.117294 -117.170599 326 36159ft 475kts
25-Jul-20 16:04 37.229547 -117.257141 326 36160ft 475kts
25-Jul-20 16:05 37.343638 -117.339897 331 36162ft 476kts
25-Jul-20 16:06 37.461249 -117.415831 331 36147ft 477kts
25-Jul-20 16:07 37.578867 -117.492267 331 36149ft 476kts
25-Jul-20 16:08 37.696331 -117.568890 331 36168ft 476kts
25-Jul-20 16:09 37.813655 -117.645724 331 36151ft 476kts
25-Jul-20 16:10 37.930912 -117.722769 330 36118ft 477kts
25-Jul-20 16:11 38.041289 -117.812180 318 36142ft 473kts
25-Jul-20 16:12 38.141039 -117.918764 317 36136ft 472kts
25-Jul-20 16:13 38.240907 -118.026587 317 36086ft 472kts
25-Jul-20 16:14 38.341107 -118.135253 318 36034ft 473kts
25-Jul-20 16:15 38.441169 -118.244182 317 36037ft 473kts
25-Jul-20 16:16 38.541328 -118.353631 317 36036ft 473kts
25-Jul-20 16:17 38.641043 -118.463018 317 36036ft 473kts
25-Jul-20 16:18 38.740894 -118.572986 317 36034ft 473kts
25-Jul-20 16:19 38.839489 -118.681958 317 36040ft 472kts
25-Jul-20 16:20 38.938090 -118.791364 317 36029ft 456kts
25-Jul-20 16:21 39.034336 -118.898610 321 36045ft 466kts
25-Jul-20 16:22 39.131740 -119.007457 321 36038ft 464kts
25-Jul-20 16:23 39.232886 -119.108102 337 36054ft 459kts
25-Jul-20 16:24 39.353468 -119.160540 344 36055ft 457kts
25-Jul-20 16:25 39.474289 -119.210140 344 36062ft 457kts
25-Jul-20 16:26 39.595364 -119.259852 344 36068ft 457kts
25-Jul-20 16:27 39.715971 -119.309534 344 36073ft 457kts
25-Jul-20 16:28 39.837015 -119.359578 344 36086ft 457kts
25-Jul-20 16:29 39.958009 -119.409787 344 36117ft 457kts
25-Jul-20 16:30 40.078625 -119.460025 344 36116ft 456kts
25-Jul-20 16:31 40.199614 -119.510598 344 36123ft 457kts
25-Jul-20 16:32 40.320236 -119.561213 344 36130ft 457kts
25-Jul-20 16:33 40.440876 -119.612028 344 36116ft 457kts
25-Jul-20 16:34 40.561709 -119.663117 343 36096ft 457kts
25-Jul-20 16:35 40.682546 -119.714401 343 36082ft 457kts
25-Jul-20 16:36 40.803314 -119.765852 343 36071ft 457kts
25-Jul-20 16:37 40.923932 -119.817432 343 36083ft 457kts
25-Jul-20 16:38 41.044332 -119.869096 342 36087ft 450kts
25-Jul-20 16:39 41.161654 -119.919652 341 36093ft 450kts
25-Jul-20 16:40 41.280076 -119.970906 341 36092ft 450kts
25-Jul-20 16:41 41.399050 -120.022572 341 36091ft 450kts
25-Jul-20 16:42 41.518023 -120.074435 341 36091ft 450kts
25-Jul-20 16:43 41.636299 -120.126192 341 36093ft 450kts
25-Jul-20 16:44 41.755274 -120.178458 341 36101ft 450kts
25-Jul-20 16:45 41.874029 -120.230833 341 36118ft 450kts
25-Jul-20 16:46 41.992953 -120.283487 341 36134ft 450kts
25-Jul-20 16:47 42.111506 -120.336185 341 36136ft 450kts
25-Jul-20 16:48 42.230377 -120.389226 341 36137ft 450kts
25-Jul-20 16:49 42.348743 -120.442258 341 36136ft 450kts
25-Jul-20 16:50 42.467275 -120.495575 341 36136ft 450kts
25-Jul-20 16:51 42.582490 -120.561376 336 36135ft 449kts
25-Jul-20 16:52 42.696611 -120.630414 336 36135ft 449kts
25-Jul-20 16:53 42.810872 -120.699920 335 36136ft 449kts
25-Jul-20 16:54 42.924896 -120.769597 335 36134ft 446kts
25-Jul-20 16:55 43.037047 -120.838433 338 36132ft 442kts
25-Jul-20 16:56 43.149048 -120.907362 338 36156ft 443kts
25-Jul-20 16:57 43.261111 -120.976647 338 36166ft 443kts
25-Jul-20 16:58 43.373500 -121.046418 337 36165ft 444kts
25-Jul-20 16:59 43.486145 -121.116644 337 36165ft 446kts
25-Jul-20 17:00 43.599445 -121.187572 337 36164ft 448kts
25-Jul-20 17:01 43.712929 -121.255475 335 36168ft 449kts
25-Jul-20 17:02 43.825859 -121.330311 337 36163ft 448kts
25-Jul-20 17:03 43.939133 -121.402036 337 36162ft 448kts
25-Jul-20 17:04 44.052220 -121.474020 337 36161ft 448kts
25-Jul-20 17:05 44.165341 -121.546334 337 36167ft 448kts
25-Jul-20 17:06 44.278472 -121.618965 337 36161ft 448kts
25-Jul-20 17:07 44.391549 -121.691878 336 36155ft 448kts
25-Jul-20 17:08 44.504589 -121.765076 336 36137ft 448kts
25-Jul-20 17:09 44.617674 -121.838618 336 36136ft 448kts
25-Jul-20 17:10 44.730587 -121.912365 336 36127ft 448kts
25-Jul-20 17:11 44.843657 -121.986536 336 36120ft 448kts
25-Jul-20 17:12 44.957033 -122.061233 336 36117ft 448kts
25-Jul-20 17:13 45.069643 -122.135736 336 36115ft 447kts
25-Jul-20 17:14 45.182236 -122.210551 334 36103ft 450kts
25-Jul-20 17:15 45.295320 -122.286065 334 36101ft 449kts
25-Jul-20 17:16 45.408844 -122.362194 334 35502ft 456kts
25-Jul-20 17:17 45.522879 -122.439007 334 33196ft 458kts
25-Jul-20 17:18 45.639069 -122.517629 335 30485ft 467kts
25-Jul-20 17:19 45.758044 -122.592249 345 28009ft 465kts
25-Jul-20 17:20 45.883368 -122.624887 350 25859ft 452kts
25-Jul-20 17:21 46.006126 -122.655484 349 23795ft 440kts
25-Jul-20 17:22 46.125468 -122.683714 351 21818ft 429kts
25-Jul-20 17:23 46.239990 -122.706289 351 19867ft 417kts
25-Jul-20 17:24 46.354073 -122.723198 357 17961ft 407kts
25-Jul-20 17:25 46.465720 -122.727410 358 16157ft 395kts
25-Jul-20 17:26 46.576369 -122.730158 357 16166ft 398kts
25-Jul-20 17:27 46.683436 -122.732438 359 16121ft 338kts
25-Jul-20 17:28 46.777676 -122.732939 14 16152ft 338kts
25-Jul-20 17:29 46.782256 -122.730927 17 16155ft 338kts
25-Jul-20 17:32 47.092444 -122.497908 5 11839ft 305kts
25-Jul-20 17:33 47.175092 -122.482852 6 10560ft 294kts
25-Jul-20 17:34 47.255083 -122.470180 4 9497ft 285kts
25-Jul-20 17:35 47.333333 -122.458211 4 8238ft 269kts
25-Jul-20 17:36 47.405158 -122.455312 358 7183ft 253kts
25-Jul-20 17:37 47.474736 -122.455344 358 6524ft 240kts
25-Jul-20 17:38 47.538677 -122.455806 358 5845ft 226kts
25-Jul-20 17:39 47.600990 -122.454580 17 4945ft 224kts
25-Jul-20 17:40 47.622031 -122.372538 84 3983ft 231kts
25-Jul-20 17:41 47.594329 -122.302803 184 3007ft 221kts
25-Jul-20 17:42 47.537231 -122.307066 182 1911ft 187kts
25-Jul-20 17:43 47.491121 -122.307473 183 1002ft 147kts
25-Jul-20 17:44 47.452553 -122.307883 181 438ft 85kts
25-Jul-20 17:45 47.446350 -122.306341 8 438ft 10kts
25-Jul-20 17:46 47.451855 -122.306269 0 438ft 23kts
25-Jul-20 17:47 47.459085 -122.306187 0 438ft 24kts
25-Jul-20 17:48 47.462076 -122.303892 7 438ft 7kts

Navigation Log

Ident Type
Flight plan parsing failed, navigation log unavailable